Time;durP1;ratioP1;P1;durP2;ratioP2;P2;SDS_P1;SDS_P2;PMS_P1;PMS_P2;Temp;Humidity;BMP_temperature;BMP_pressure;BME280_temperature;BME280_humidity;BME280_pressure;Samples;Min_cycle;Max_cycle;Signal;HPM_P1;HPM_P2
2023/02/10 00:01:56;;;;;;;21.70;13.15;;;;;;;;;;5064995;28;20738;-84
2023/02/10 00:04:23;;;;;;;19.73;12.43;;;;;;;;;;5064836;28;20207;-83
2023/02/10 00:06:50;;;;;;;17.80;11.70;;;;;;;;;;5063997;28;20249;-85
2023/02/10 00:09:17;;;;;;;22.15;12.68;;;;;;;;;;5065379;28;20294;-85
2023/02/10 00:12:00;;;;;;;21.38;13.23;;;0.70;99.90;;;;;;5068458;28;20626;-83
2023/02/10 00:14:30;;;;;;;20.45;12.57;;;1.00;1.00;;;;;;5073670;28;20246;-82
2023/02/10 00:16:57;;;;;;;19.10;11.23;;;0.90;1.00;;;;;;5068017;28;20307;-84
2023/02/10 00:19:26;;;;;;;20.55;11.65;;;1.10;1.00;;;;;;5063844;28;20230;-83
2023/02/10 00:21:53;;;;;;;17.10;11.48;;;1.10;1.00;;;;;;5064667;28;20267;-85
2023/02/10 00:24:21;;;;;;;18.20;11.20;;;1.50;99.90;;;;;;5064042;28;20692;-84
2023/02/10 00:26:49;;;;;;;15.27;12.05;;;1.20;1.00;;;;;;5064326;28;20226;-86
2023/02/10 00:29:16;;;;;;;25.83;12.95;;;;;;;;;;5063954;28;20211;-84
2023/02/10 00:31:44;;;;;;;17.38;10.73;;;1.30;1.00;;;;;;5064512;28;20206;-85
2023/02/10 00:34:12;;;;;;;20.60;11.82;;;1.30;1.00;;;;;;5065722;28;20290;-85
2023/02/10 00:36:39;;;;;;;22.35;13.05;;;;;;;;;;5064528;28;20238;-84
2023/02/10 00:39:07;;;;;;;23.98;13.25;;;1.30;99.90;;;;;;5063572;28;20191;-85
2023/02/10 00:41:36;;;;;;;21.15;12.40;;;;;;;;;;5063471;28;20207;-84
2023/02/10 00:44:03;;;;;;;25.38;12.88;;;;;;;;;;5065077;28;20207;-84
2023/02/10 00:46:30;;;;;;;25.98;13.77;;;1.00;1.00;;;;;;5069791;28;20218;-84
2023/02/10 00:48:58;;;;;;;18.05;12.93;;;1.30;1.00;;;;;;5073066;28;20274;-86
2023/02/10 00:51:25;;;;;;;20.08;12.20;;;;;;;;;;5073521;28;20203;-85
2023/02/10 00:53:52;;;;;;;22.33;11.75;;;1.60;99.90;;;;;;5074911;28;20211;-83
2023/02/10 00:56:20;;;;;;;20.35;12.40;;;1.50;1.00;;;;;;5073983;28;20255;-84
2023/02/10 00:58:47;;;;;;;22.13;12.07;;;;;;;;;;5072712;28;20305;-87
2023/02/10 01:01:14;;;;;;;22.15;13.88;;;1.50;1.00;;;;;;5066783;28;20202;-85
2023/02/10 01:03:41;;;;;;;21.17;13.52;;;1.20;1.00;;;;;;5064719;28;20208;-84
2023/02/10 01:06:11;;;;;;;20.77;12.30;;;1.60;4.50;;;;;;5066565;28;20207;-85
2023/02/10 01:08:38;;;;;;;19.15;11.73;;;;;;;;;;5075112;28;20245;-82
2023/02/10 01:11:07;;;;;;;24.35;13.25;;;1.60;1.00;;;;;;5066217;28;20207;-85
2023/02/10 01:13:35;;;;;;;17.73;12.45;;;1.60;14.60;;;;;;5066498;28;20291;-85
2023/02/10 01:16:02;;;;;;;19.55;12.20;;;;;;;;;;5064322;28;20271;-84
2023/02/10 01:18:29;;;;;;;24.15;13.52;;;;;;;;;;5063722;28;20309;-84
2023/02/10 01:20:57;;;;;;;26.77;11.02;;;;;;;;;;5064028;28;20295;-85
2023/02/10 01:23:25;;;;;;;21.30;12.25;;;1.70;9.20;;;;;;5064544;28;20279;-85
2023/02/10 01:25:52;;;;;;;25.48;13.75;;;;;;;;;;5061685;28;20258;-82
2023/02/10 01:28:19;;;;;;;17.98;12.48;;;;;;;;;;5072104;28;20295;-83
2023/02/10 01:30:46;;;;;;;22.02;12.48;;;;;;;;;;5071864;28;20275;-83
2023/02/10 01:33:14;;;;;;;27.25;12.90;;;1.20;99.90;;;;;;5068426;28;20218;-84
2023/02/10 01:35:41;;;;;;;17.77;13.20;;;;;;;;;;5067378;28;20242;-85
2023/02/10 01:38:08;;;;;;;22.85;14.48;;;;;;;;;;5067882;28;20235;-85
2023/02/10 01:40:36;;;;;;;25.13;12.25;;;1.20;99.90;;;;;;5073754;28;20217;-83
2023/02/10 01:43:10;;;;;;;23.05;13.27;;;1.10;99.90;;;;;;5079368;28;20199;-83
2023/02/10 01:45:38;;;;;;;25.70;13.15;;;1.30;1.00;;;;;;5076127;28;20190;-85
2023/02/10 01:48:06;;;;;;;19.90;13.75;;;;;;;;;;5075969;28;20286;-86
2023/02/10 01:50:39;;;;;;;21.98;13.20;;;1.10;99.90;;;;;;5072879;28;20203;-84
2023/02/10 01:53:07;;;;;;;25.13;14.63;;;1.10;99.90;;;;;;5073316;28;20191;-85
2023/02/10 01:55:37;;;;;;;17.63;13.48;;;1.00;99.90;;;;;;5074277;28;20239;-84
2023/02/10 01:58:07;;;;;;;26.33;12.50;;;1.00;99.90;;;;;;5071774;28;20251;-82
2023/02/10 02:00:34;;;;;;;23.73;13.77;;;;;;;;;;5077209;28;20207;-83
2023/02/10 02:03:02;;;;;;;19.33;12.75;;;0.60;33.30;;;;;;5076984;28;20197;-83
2023/02/10 02:05:32;;;;;;;21.33;12.73;;;0.90;1.00;;;;;;5076764;28;20198;-82
2023/02/10 02:08:03;;;;;;;21.98;12.93;;;1.00;1.00;;;;;;5076144;28;20234;-83
2023/02/10 02:10:59;;;;;;;25.33;15.25;;;0.70;99.90;;;;;;5076805;28;20171;-83
2023/02/10 02:13:41;;;;;;;28.40;14.32;;;1.00;99.90;;;;;;5061145;28;20203;-83
2023/02/10 02:16:23;;;;;;;25.05;14.23;;;1.20;99.90;;;;;;5076531;28;20231;-83
2023/02/10 02:18:57;;;;;;;27.45;15.93;;;0.90;1.00;;;;;;5069474;28;20251;-85
2023/02/10 02:22:00;;;;;;;19.77;14.38;;;0.90;1.00;;;;;;5069797;28;20175;-85
2023/02/10 02:24:54;;;;;;;24.23;14.77;;;0.80;1.00;;;;;;5077667;28;20275;-85
2023/02/10 02:27:49;;;;;;;24.52;13.82;;;0.80;1.00;;;;;;5074376;28;20291;-85
2023/02/10 02:30:44;;;;;;;21.15;13.00;;;0.90;1.00;;;;;;5064807;28;20252;-84
2023/02/10 02:33:18;;;;;;;25.42;15.70;;;1.10;99.90;;;;;;5064851;28;20275;-84
2023/02/10 02:35:48;;;;;;;25.55;14.60;;;0.80;1.00;;;;;;5064322;28;20274;-84
2023/02/10 02:38:16;;;;;;;28.10;15.07;;;;;;;;;;5109183;22;20230;-81
2023/02/10 02:40:43;;;;;;;27.70;14.55;;;0.80;99.90;;;;;;5098575;28;20202;-81
2023/02/10 02:43:10;;;;;;;24.40;15.82;;;0.90;99.90;;;;;;5098432;28;20289;-80
2023/02/10 02:45:46;;;;;;;24.05;14.35;;;1.00;99.90;;;;;;5097949;28;20560;-80
2023/02/10 02:48:32;;;;;;;26.17;13.25;;;1.00;99.90;;;;;;5098114;28;20328;-80
2023/02/10 02:51:05;;;;;;;22.20;14.07;;;1.20;99.90;;;;;;5099382;28;20202;-80
2023/02/10 02:53:39;;;;;;;21.17;12.77;;;0.70;46.80;;;;;;5098947;28;20221;-80
2023/02/10 02:56:15;;;;;;;28.13;13.35;;;0.60;99.90;;;;;;5097633;28;20190;-80
2023/02/10 02:58:50;;;;;;;23.30;13.70;;;0.60;99.90;;;;;;5097854;28;20221;-81
2023/02/10 03:01:24;;;;;;;21.30;12.93;;;0.80;1.00;;;;;;5097605;28;20192;-81
2023/02/10 03:03:54;;;;;;;25.35;14.82;;;0.80;1.00;;;;;;5097412;28;20186;-81
2023/02/10 03:06:21;;;;;;;31.08;16.45;;;1.10;99.90;;;;;;5106452;28;20212;-81
2023/02/10 03:08:48;;;;;;;25.17;14.50;;;0.40;99.90;;;;;;5107477;28;20252;-81
2023/02/10 03:11:15;;;;;;;26.80;15.88;;;1.20;99.90;;;;;;5099182;28;20208;-81
2023/02/10 03:13:42;;;;;;;25.10;15.65;;;;;;;;;;5103398;28;20202;-82
2023/02/10 03:16:09;;;;;;;24.40;14.88;;;;;;;;;;5097841;28;20284;-82
2023/02/10 03:18:36;;;;;;;24.20;16.13;;;;;;;;;;5096934;28;20663;-81
2023/02/10 03:21:05;;;;;;;24.08;16.67;;;0.70;1.00;;;;;;5097607;28;20208;-81
2023/02/10 03:23:32;;;;;;;33.92;16.42;;;;;;;;;;5104636;28;20724;-81
2023/02/10 03:25:59;;;;;;;22.15;14.30;;;0.40;1.00;;;;;;5100262;28;20201;-81
2023/02/10 03:28:26;;;;;;;35.92;16.70;;;;;;;;;;5111038;28;20319;-81
2023/02/10 03:30:53;;;;;;;26.35;15.75;;;0.80;1.00;;;;;;5108847;28;20201;-81
2023/02/10 03:33:20;;;;;;;28.77;16.42;;;;;;;;;;5107747;28;20206;-81
2023/02/10 03:35:49;;;;;;;29.25;15.63;;;-0.10;99.90;;;;;;5105874;28;20204;-81
2023/02/10 03:38:17;;;;;;;29.13;16.75;;;0.80;99.90;;;;;;5104967;28;20226;-82
2023/02/10 03:40:44;;;;;;;28.27;15.25;;;;;;;;;;5104700;28;20220;-81
2023/02/10 03:43:11;;;;;;;28.98;16.60;;;;;;;;;;5104091;28;20230;-81
2023/02/10 03:45:40;;;;;;;29.70;16.15;;;0.80;99.90;;;;;;5102954;28;20265;-81
2023/02/10 03:48:07;;;;;;;31.95;16.05;;;;;;;;;;5102159;28;20704;-81
2023/02/10 03:50:34;;;;;;;28.92;16.58;;;;;;;;;;5102766;28;20238;-82
2023/02/10 03:53:01;;;;;;;28.65;17.50;;;;;;;;;;5101349;28;20198;-82
2023/02/10 03:55:29;;;;;;;31.88;17.15;;;1.00;58.40;;;;;;5101027;28;20210;-80
2023/02/10 03:57:56;;;;;;;29.90;17.83;;;;;;;;;;5100858;28;20294;-81
2023/02/10 04:00:24;;;;;;;30.60;20.45;;;1.00;99.90;;;;;;5101482;28;20209;-81
2023/02/10 04:02:51;;;;;;;27.08;17.67;;;;;;;;;;5102167;28;20233;-82
2023/02/10 04:05:18;;;;;;;33.03;19.10;;;;;;;;;;5110468;28;20202;-82
2023/02/10 04:07:45;;;;;;;32.70;17.83;;;1.20;97.60;;;;;;5106242;28;20634;-82
2023/02/10 04:10:12;;;;;;;31.88;19.20;;;1.30;99.90;;;;;;5103692;28;20202;-82
2023/02/10 04:12:40;;;;;;;26.05;17.05;;;0.80;99.90;;;;;;5102805;28;20270;-81
2023/02/10 04:15:08;;;;;;;34.25;20.90;;;1.00;1.00;;;;;;5102728;28;20245;-82
2023/02/10 04:17:35;;;;;;;36.70;17.73;;;;;;;;;;5108891;28;20252;-81
2023/02/10 04:20:02;;;;;;;45.13;21.60;;;;;;;;;;5114929;28;20716;-81
2023/02/10 04:22:29;;;;;;;40.55;19.90;;;;;;;;;;5118401;28;20186;-81
2023/02/10 04:24:57;;;;;;;39.22;22.67;;;;;;;;;;5117672;28;20205;-82
2023/02/10 04:27:24;;;;;;;41.60;20.83;;;;;;;;;;5117044;28;20317;-81
2023/02/10 04:29:52;;;;;;;44.60;21.10;;;1.10;99.90;;;;;;5110086;28;20206;-80
2023/02/10 04:32:19;;;;;;;39.17;20.27;;;;;;;;;;5107645;28;20212;-81
2023/02/10 04:34:46;;;;;;;34.53;20.35;;;;;;;;;;5104017;28;20206;-81
2023/02/10 04:37:13;;;;;;;42.03;23.80;;;1.20;99.90;;;;;;5103430;28;20298;-81
2023/02/10 04:39:40;;;;;;;37.13;20.35;;;1.00;99.90;;;;;;5101983;28;20193;-81
2023/02/10 04:42:07;;;;;;;34.67;20.23;;;;;;;;;;5110295;28;20240;-81
2023/02/10 04:44:34;;;;;;;40.50;22.13;;;;;;;;;;5110706;28;20212;-81
2023/02/10 04:47:03;;;;;;;43.05;22.17;;;1.30;99.90;;;;;;5110877;28;20210;-81
2023/02/10 04:49:30;;;;;;;40.65;21.60;;;;;;;;;;5109521;28;20273;-81
2023/02/10 04:51:57;;;;;;;50.90;21.58;;;;;;;;;;5112101;28;20197;-81
2023/02/10 04:54:24;;;;;;;40.95;21.83;;;1.40;99.90;;;;;;5115488;28;20220;-80
2023/02/10 04:56:52;;;;;;;38.20;22.13;;;;;;;;;;5117598;28;20229;-80
2023/02/10 04:59:18;;;;;;;48.85;24.60;;;1.40;1.00;;;;;;5103288;28;20202;-80
2023/02/10 05:01:46;;;;;;;36.17;21.55;;;;;;;;;;5101118;28;20202;-81
2023/02/10 05:04:14;;;;;;;43.85;23.83;;;1.40;99.90;;;;;;5100277;28;20456;-80
2023/02/10 05:06:41;;;;;;;34.88;21.17;;;;;;;;;;5100745;28;20259;-82
2023/02/10 05:09:08;;;;;;;46.70;24.25;;;1.60;12.00;;;;;;5099811;28;20289;-80
2023/02/10 05:11:35;;;;;;;38.15;23.35;;;;;;;;;;5104378;28;20248;-81
2023/02/10 05:14:02;;;;;;;39.40;21.00;;;;;;;;;;5107982;28;20198;-80
2023/02/10 05:16:29;;;;;;;43.08;23.55;;;1.30;99.90;;;;;;5106050;28;20274;-80
2023/02/10 05:18:56;;;;;;;44.55;22.38;;;;;;;;;;5100673;28;20304;-81
2023/02/10 05:21:24;;;;;;;42.85;21.10;;;1.40;1.00;;;;;;5101208;28;20668;-81
2023/02/10 05:23:51;;;;;;;36.67;21.80;;;1.30;99.90;;;;;;5100809;28;20201;-81
2023/02/10 05:26:18;;;;;;;43.08;23.33;;;1.00;99.90;;;;;;5100210;28;20288;-81
2023/02/10 05:28:45;;;;;;;37.63;21.45;;;;;;;;;;5101382;28;20225;-80
2023/02/10 05:31:12;;;;;;;44.92;25.27;;;;;;;;;;5103500;28;20206;-80
2023/02/10 05:33:39;;;;;;;38.50;22.83;;;1.10;99.90;;;;;;5101207;28;20668;-80
2023/02/10 05:36:07;;;;;;;36.63;20.83;;;1.50;99.90;;;;;;5101652;28;20202;-81
2023/02/10 05:38:35;;;;;;;42.97;21.75;;;1.40;1.00;;;;;;5106807;28;20242;-80
2023/02/10 05:41:02;;;;;;;42.95;22.80;;;;;;;;;;5106121;28;20210;-82
2023/02/10 05:43:29;;;;;;;54.28;24.00;;;;;;;;;;5103998;28;20206;-82
2023/02/10 05:45:56;;;;;;;41.97;25.15;;;1.40;1.00;;;;;;5100037;28;20251;-81
2023/02/10 05:48:24;;;;;;;43.15;23.75;;;1.60;1.00;;;;;;5098052;28;20286;-81
2023/02/10 05:50:52;;;;;;;38.38;22.45;;;1.40;99.90;;;;;;5099068;28;20251;-81
2023/02/10 05:53:19;;;;;;;35.30;22.15;;;1.20;1.00;;;;;;5098112;28;20213;-81
2023/02/10 05:55:48;;;;;;;41.22;23.50;;;1.40;99.90;;;;;;5097828;28;20202;-81
2023/02/10 05:58:15;;;;;;;44.50;23.23;;;;;;;;;;5098356;28;20218;-82
2023/02/10 06:00:43;;;;;;;37.17;21.70;;;1.40;99.90;;;;;;5098399;28;20634;-81
2023/02/10 06:03:10;;;;;;;42.58;23.20;;;;;;;;;;5098586;28;20233;-82
2023/02/10 06:05:37;;;;;;;47.20;24.25;;;1.20;14.20;;;;;;5098204;28;20210;-81
2023/02/10 06:08:04;;;;;;;40.75;22.75;;;;;;;;;;5110719;28;20222;-81
2023/02/10 06:10:31;;;;;;;42.22;22.88;;;;;;;;;;5096783;28;20265;-81
2023/02/10 06:12:59;;;;;;;37.58;22.95;;;1.30;1.00;;;;;;5096638;28;20241;-81
2023/02/10 06:15:26;;;;;;;42.33;23.92;;;1.00;99.90;;;;;;5096450;28;20206;-81
2023/02/10 06:17:53;;;;;;;37.75;21.23;;;;;;;;;;5097223;28;20261;-81
2023/02/10 06:20:20;;;;;;;42.53;22.45;;;;;;;;;;5097824;28;20202;-81
2023/02/10 06:22:48;;;;;;;39.38;23.55;;;;;;;;;;5098774;28;20212;-81
2023/02/10 06:25:15;;;;;;;37.33;22.33;;;1.20;99.90;;;;;;5105595;28;20265;-81
2023/02/10 06:27:41;;;;;;;51.10;26.45;;;1.10;99.90;;;;;;5110351;28;20226;-81
2023/02/10 06:30:11;;;;;;;43.15;24.52;;;1.30;1.00;;;;;;5106892;28;20288;-81
2023/02/10 06:32:38;;;;;;;42.35;23.15;;;1.30;99.90;;;;;;5101314;28;20206;-80
2023/02/10 06:35:05;;;;;;;44.25;26.80;;;;;;;;;;5101007;28;20703;-81
2023/02/10 06:37:32;;;;;;;44.75;22.35;;;1.40;99.90;;;;;;5099495;28;20225;-81
2023/02/10 06:39:59;;;;;;;38.58;22.08;;;;;;;;;;5105799;28;20270;-82
2023/02/10 06:42:26;;;;;;;43.92;23.85;;;;;;;;;;5109179;28;20226;-81
2023/02/10 06:44:53;;;;;;;40.20;23.63;;;1.60;99.90;;;;;;5105270;28;20292;-81
2023/02/10 06:47:21;;;;;;;47.60;26.55;;;1.50;99.90;;;;;;5102098;28;20690;-81
2023/02/10 06:49:48;;;;;;;56.20;26.30;;;;;;;;;;5101017;28;20225;-81
2023/02/10 06:52:15;;;;;;;40.00;23.52;;;;;;;;;;5100210;28;20273;-81
2023/02/10 06:54:42;;;;;;;50.83;25.25;;;1.60;99.90;;;;;;5100497;28;20212;-81
2023/02/10 06:57:09;;;;;;;41.58;26.27;;;1.50;99.90;;;;;;5108610;28;20202;-80
2023/02/10 06:59:36;;;;;;;39.80;23.27;;;1.40;1.00;;;;;;5107652;28;20202;-81
2023/02/10 07:02:04;;;;;;;42.40;22.83;;;1.20;99.90;;;;;;5099736;28;20206;-82
2023/02/10 07:04:33;;;;;;;42.97;26.13;;;1.20;99.90;;;;;;5099298;28;20270;-81
2023/02/10 07:06:59;;;;;;;46.85;25.70;;;1.00;1.00;;;;;;5102677;28;20288;-81
2023/02/10 07:09:26;;;;;;;45.83;23.63;;;;;;;;;;5096725;28;20228;-81
2023/02/10 07:11:54;;;;;;;42.58;24.38;;;;;;;;;;5096729;28;20225;-81
2023/02/10 07:14:21;;;;;;;45.60;24.23;;;;;;;;;;5103436;28;20209;-81
2023/02/10 07:16:48;;;;;;;43.65;23.05;;;;;;;;;;5106417;28;20225;-80
2023/02/10 07:19:15;;;;;;;47.13;25.27;;;0.90;1.00;;;;;;5105536;28;20213;-81
2023/02/10 07:21:43;;;;;;;59.10;26.17;;;1.30;99.90;;;;;;5099306;28;20202;-81
2023/02/10 07:24:10;;;;;;;45.58;25.35;;;;;;;;;;5097571;28;20197;-82
2023/02/10 07:26:37;;;;;;;40.70;23.48;;;;;;;;;;5098332;28;20201;-82
2023/02/10 07:29:05;;;;;;;51.28;26.42;;;;;;;;;;5099167;28;20312;-81
2023/02/10 07:31:34;;;;;;;48.00;26.00;;;1.40;1.00;;;;;;5098933;28;20233;-82
2023/02/10 07:34:01;;;;;;;50.15;27.25;;;;;;;;;;5100671;28;20198;-81
2023/02/10 07:36:28;;;;;;;47.75;25.05;;;;;;;;;;5114668;28;20265;-81
2023/02/10 07:38:57;;;;;;;44.67;23.17;;;1.10;1.00;;;;;;5113718;28;20324;-80
2023/02/10 07:41:24;;;;;;;49.65;26.73;;;;;;;;;;5114807;28;20260;-82
2023/02/10 07:43:50;;;;;;;47.70;24.75;;;1.40;99.90;;;;;;5108322;28;20266;-81
2023/02/10 07:46:17;;;;;;;50.15;25.65;;;1.10;99.90;;;;;;5102587;28;20220;-81
2023/02/10 07:48:45;;;;;;;50.05;24.13;;;;;;;;;;5101056;28;20754;-80
2023/02/10 07:51:12;;;;;;;40.90;26.65;;;;;;;;;;5100323;28;20251;-81
2023/02/10 07:53:39;;;;;;;44.30;23.38;;;;;;;;;;5101979;28;20678;-81
2023/02/10 07:56:08;;;;;;;42.38;28.02;;;1.60;2.90;;;;;;5101046;28;20241;-81
2023/02/10 07:58:35;;;;;;;43.95;25.65;;;;;;;;;;5097907;28;20218;-81
2023/02/10 08:01:07;;;;;;;50.72;25.90;;;1.60;58.70;;;;;;5098057;28;20293;-83
2023/02/10 08:03:34;;;;;;;42.67;24.73;;;;;;;;;;5099949;28;20633;-81
2023/02/10 08:06:01;;;;;;;47.80;25.58;;;;;;;;;;5101152;28;20208;-80
2023/02/10 08:08:28;;;;;;;54.78;27.00;;;1.70;99.90;;;;;;5100615;28;20308;-82
2023/02/10 08:10:55;;;;;;;56.83;25.50;;;;;;;;;;5102148;28;20220;-81
2023/02/10 08:13:24;;;;;;;43.17;23.13;;;1.90;1.00;;;;;;5102993;28;20209;-82
2023/02/10 08:15:51;;;;;;;42.60;23.08;;;;;;;;;;5101894;28;20265;-81
2023/02/10 08:18:18;;;;;;;37.60;21.67;;;1.70;99.90;;;;;;5108837;28;20253;-81
2023/02/10 08:20:45;;;;;;;55.97;23.38;;;;;;;;;;5112678;28;20236;-81
2023/02/10 08:23:15;;;;;;;38.92;23.10;;;2.20;1.00;;;;;;5101992;28;20201;-81
2023/02/10 08:25:42;;;;;;;33.80;21.17;;;;;;;;;;5101016;28;20273;-82
2023/02/10 08:28:10;;;;;;;40.53;20.80;;;;;;;;;;5100337;28;20228;-82
2023/02/10 08:30:38;;;;;;;44.72;21.08;;;2.30;1.00;;;;;;5100916;28;20308;-82
2023/02/10 08:33:05;;;;;;;48.83;20.83;;;;;;;;;;5101087;28;20270;-81
2023/02/10 08:35:32;;;;;;;39.80;20.27;;;;;;;;;;5100992;28;20201;-81
2023/02/10 08:37:59;;;;;;;36.17;20.85;;;;;;;;;;5111970;22;20231;-84
2023/02/10 08:40:26;;;;;;;42.53;21.60;;;2.70;1.00;;;;;;5086830;28;20274;-84
2023/02/10 08:42:53;;;;;;;47.95;21.65;;;;;;;;;;5087970;28;20297;-82
2023/02/10 08:45:20;;;;;;;41.22;23.10;;;2.90;1.00;;;;;;5098176;28;20228;-83
2023/02/10 08:47:48;;;;;;;36.00;20.77;;;2.80;99.90;;;;;;5098997;28;20213;-84
2023/02/10 08:50:16;;;;;;;40.22;20.05;;;;;;;;;;5098176;28;20250;-82
2023/02/10 08:52:43;;;;;;;41.28;20.73;;;;;;;;;;5096325;28;20263;-84
2023/02/10 08:55:11;;;;;;;33.55;20.13;;;;;;;;;;5088004;28;20226;-85
2023/02/10 08:57:38;;;;;;;39.80;22.52;;;2.90;99.90;;;;;;5085860;28;20265;-84
2023/02/10 09:00:06;;;;;;;48.63;22.13;;;3.10;1.00;;;;;;5085404;28;20665;-84
2023/02/10 09:02:33;;;;;;;37.78;21.60;;;;;;;;;;5085790;28;20203;-84
2023/02/10 09:05:01;;;;;;;42.75;22.73;;;3.20;99.90;;;;;;5086299;28;20203;-84
2023/02/10 09:07:28;;;;;;;33.78;20.65;;;3.10;99.90;;;;;;5086770;28;20207;-84
2023/02/10 09:09:55;;;;;;;34.55;21.45;;;;;;;;;;5085548;28;20253;-83
2023/02/10 09:12:22;;;;;;;39.95;20.15;;;;;;;;;;5087434;28;20234;-84
2023/02/10 09:14:50;;;;;;;40.40;23.67;;;;;;;;;;5086469;28;20270;-83
2023/02/10 09:17:17;;;;;;;39.10;21.48;;;;;;;;;;5086566;28;20203;-83
2023/02/10 09:19:46;;;;;;;43.00;21.73;;;3.50;99.90;;;;;;5085314;28;20210;-83
2023/02/10 09:22:17;;;;;;;47.30;22.55;;;3.60;8.50;;;;;;5085977;28;20203;-83
2023/02/10 09:24:47;;;;;;;52.28;23.42;;;3.60;99.90;;;;;;5085592;28;20236;-85
2023/02/10 09:27:14;;;;;;;41.40;22.92;;;3.40;1.00;;;;;;5095965;28;20229;-84
2023/02/10 09:29:41;;;;;;;43.10;22.65;;;;;;;;;;5098431;28;20230;-84
2023/02/10 09:32:08;;;;;;;42.70;22.88;;;;;;;;;;5097060;28;20267;-84
2023/02/10 09:34:35;;;;;;;44.92;22.75;;;3.50;99.90;;;;;;5088078;28;20205;-84
2023/02/10 09:37:02;;;;;;;38.10;21.30;;;3.70;99.90;;;;;;5089934;28;20202;-83
2023/02/10 09:39:31;;;;;;;48.08;22.45;;;3.50;1.00;;;;;;5084831;28;20233;-83
2023/02/10 09:42:04;;;;;;;39.58;22.13;;;3.60;1.00;;;;;;5082726;28;20203;-84
2023/02/10 09:44:35;;;;;;;45.65;25.20;;;3.30;99.90;;;;;;5083144;28;20189;-84
2023/02/10 09:47:17;;;;;;;44.03;24.15;;;3.80;1.00;;;;;;5083745;28;20274;-83
2023/02/10 09:49:55;;;;;;;46.83;26.55;;;3.80;1.00;;;;;;5084939;28;20244;-82
2023/02/10 09:52:30;;;;;;;44.60;22.52;;;3.80;1.00;;;;;;5085488;28;20298;-84
2023/02/10 09:54:59;;;;;;;44.85;23.17;;;4.00;1.00;;;;;;5085220;28;20182;-84
2023/02/10 09:57:35;;;;;;;44.67;22.73;;;3.90;99.90;;;;;;5085631;28;20273;-85
2023/02/10 10:00:04;;;;;;;46.45;23.05;;;4.00;1.00;;;;;;5079358;28;20265;-84
2023/02/10 10:02:34;;;;;;;45.25;21.02;;;4.10;99.90;;;;;;5080650;28;20203;-83
2023/02/10 10:05:15;;;;;;;38.83;22.15;;;4.20;99.90;;;;;;5083514;28;20589;-84
2023/02/10 10:07:49;;;;;;;42.00;24.52;;;4.30;99.90;;;;;;5084752;28;20222;-84
2023/02/10 10:10:25;;;;;;;44.80;22.35;;;4.30;1.00;;;;;;5087198;28;20301;-83
2023/02/10 10:12:52;;;;;;;41.00;21.80;;;;;;;;;;5085332;28;20250;-85
2023/02/10 10:15:20;;;;;;;44.28;22.77;;;4.80;99.90;;;;;;5089619;28;20222;-84
2023/02/10 10:18:02;;;;;;;43.53;20.15;;;4.20;1.00;;;;;;5091393;28;20214;-83
2023/02/10 10:20:48;;;;;;;41.60;19.75;;;4.30;99.90;;;;;;5092413;28;20183;-84
2023/02/10 10:23:29;;;;;;;37.45;20.48;;;4.30;2.40;;;;;;5092453;28;20212;-83
2023/02/10 10:26:05;;;;;;;38.50;21.10;;;4.40;82.50;;;;;;5089300;28;20195;-84
2023/02/10 10:28:43;;;;;;;43.92;21.13;;;4.70;1.00;;;;;;5088147;28;20249;-84
2023/02/10 10:31:14;;;;;;;35.30;21.13;;;4.40;1.00;;;;;;5086670;28;20206;-84
2023/02/10 10:33:46;;;;;;;40.60;21.75;;;4.30;1.00;;;;;;5095242;28;20217;-84
2023/02/10 10:36:16;;;;;;;42.15;22.05;;;4.50;1.00;;;;;;5097306;28;20260;-83
2023/02/10 10:38:48;;;;;;;39.90;22.00;;;4.60;1.00;;;;;;5086656;28;20230;-83
2023/02/10 10:41:17;;;;;;;36.88;21.35;;;4.70;1.00;;;;;;5087180;28;20637;-84
2023/02/10 10:43:47;;;;;;;41.45;21.23;;;4.70;1.00;;;;;;5086276;28;20207;-84
2023/02/10 10:46:18;;;;;;;37.47;22.77;;;4.70;1.00;;;;;;5087248;28;20187;-85
2023/02/10 10:48:45;;;;;;;40.53;20.77;;;;;;;;;;5085342;28;20254;-83
2023/02/10 10:51:13;;;;;;;41.67;21.60;;;4.80;1.00;;;;;;5085517;28;20286;-83
2023/02/10 10:53:43;;;;;;;37.55;21.88;;;4.50;99.90;;;;;;5088396;28;20209;-83
2023/02/10 10:56:19;;;;;;;43.88;23.17;;;4.80;1.00;;;;;;5089101;28;20203;-82
2023/02/10 10:58:46;;;;;;;47.97;22.95;;;4.60;99.90;;;;;;5093522;28;20285;-85
2023/02/10 11:01:15;;;;;;;38.25;20.90;;;4.60;99.90;;;;;;5095600;28;20258;-84
2023/02/10 11:03:42;;;;;;;42.17;23.10;;;;;;;;;;5096081;28;20243;-83
2023/02/10 11:06:11;;;;;;;35.88;20.95;;;4.30;1.00;;;;;;5088632;28;20203;-84
2023/02/10 11:08:41;;;;;;;45.88;22.50;;;4.60;1.00;;;;;;5088264;28;20313;-84
2023/02/10 11:11:11;;;;;;;38.40;22.17;;;4.60;99.90;;;;;;5087492;28;20704;-84
2023/02/10 11:13:49;;;;;;;46.30;21.90;;;4.60;99.90;;;;;;5097254;28;20186;-84
2023/02/10 11:16:17;;;;;;;39.28;21.83;;;4.50;1.00;;;;;;5093717;28;20199;-84
2023/02/10 11:18:53;;;;;;;34.03;20.38;;;4.50;1.00;;;;;;5088577;28;20597;-83
2023/02/10 11:21:20;;;;;;;41.05;21.45;;;4.60;99.90;;;;;;5087428;28;20242;-84
2023/02/10 11:23:49;;;;;;;35.90;20.70;;;4.80;1.00;;;;;;5088061;28;20205;-83
2023/02/10 11:26:21;;;;;;;39.70;21.13;;;4.80;99.90;;;;;;5093436;28;20245;-83
2023/02/10 11:28:49;;;;;;;41.50;22.05;;;4.70;1.00;;;;;;5093132;28;20305;-83
2023/02/10 11:31:29;;;;;;;43.00;21.40;;;5.10;99.90;;;;;;5092009;28;20219;-84
2023/02/10 11:33:59;;;;;;;44.25;21.83;;;4.90;99.90;;;;;;5093624;28;20190;-85
2023/02/10 11:36:36;;;;;;;46.28;22.30;;;4.90;99.90;;;;;;5094168;28;20216;-85
2023/02/10 11:39:05;;;;;;;36.85;22.08;;;5.00;99.90;;;;;;5094339;28;20245;-83
2023/02/10 11:41:33;;;;;;;45.15;22.75;;;;;;;;;;5089540;28;20725;-83
2023/02/10 11:44:02;;;;;;;40.90;20.80;;;4.90;99.90;;;;;;5089748;28;20210;-83
2023/02/10 11:46:31;;;;;;;50.20;21.00;;;5.00;99.90;;;;;;5089817;28;20224;-84
2023/02/10 11:49:00;;;;;;;41.22;21.00;;;5.00;60.10;;;;;;5088347;28;20226;-83
2023/02/10 11:51:27;;;;;;;50.03;23.25;;;5.10;43.80;;;;;;5096064;28;20274;-82
2023/02/10 11:53:55;;;;;;;42.33;21.42;;;5.50;99.90;;;;;;5098054;28;20646;-84
2023/02/10 11:59:17;;;;;;;35.42;20.70;;;5.20;1.00;;;;;;5090857;28;20743;-83
2023/02/10 12:01:54;;;;;;;41.30;20.30;;;5.20;1.00;;;;;;5091111;28;20206;-84
2023/02/10 12:04:57;;;;;;;33.88;19.10;;;5.20;1.00;;;;;;5087721;28;20231;-83
2023/02/10 12:07:38;;;;;;;36.97;20.13;;;5.30;1.00;;;;;;5087561;28;20183;-83
2023/02/10 12:10:14;;;;;;;37.95;20.60;;;5.50;99.90;;;;;;5087617;28;20210;-84
2023/02/10 12:12:47;;;;;;;33.83;19.75;;;5.10;99.90;;;;;;5086497;28;20187;-83
2023/02/10 12:15:28;;;;;;;33.15;18.77;;;5.30;1.00;;;;;;5086601;28;20193;-84
2023/02/10 12:18:07;;;;;;;42.65;21.58;;;5.40;1.00;;;;;;5086610;28;20233;-83
2023/02/10 12:20:44;;;;;;;34.60;20.08;;;5.50;1.00;;;;;;5086334;28;20182;-83
2023/02/10 12:23:44;;;;;;;36.08;21.50;;;5.40;99.90;;;;;;5084875;28;20187;-84
2023/02/10 12:26:19;;;;;;;35.22;20.50;;;5.70;72.80;;;;;;5080923;28;20672;-83
2023/02/10 12:28:59;;;;;;;35.58;19.75;;;5.50;99.90;;;;;;5082341;28;20313;-84
2023/02/10 12:31:39;;;;;;;38.20;19.88;;;5.50;99.90;;;;;;5083344;28;20249;-84
2023/02/10 12:34:28;;;;;;;39.88;20.85;;;5.60;99.90;;;;;;5087000;28;20201;-84
2023/02/10 12:37:00;;;;;;;39.28;20.33;;;5.40;99.90;;;;;;5087497;28;20569;-84
2023/02/10 12:39:35;;;;;;;34.42;21.02;;;5.50;99.90;;;;;;5086865;28;20241;-84
2023/02/10 12:42:14;;;;;;;39.58;20.17;;;5.70;1.00;;;;;;5086227;28;20183;-84
2023/02/10 12:44:51;;;;;;;35.17;18.80;;;5.50;99.90;;;;;;5082194;28;20186;-83
2023/02/10 12:47:31;;;;;;;30.77;19.45;;;5.60;99.90;;;;;;5090577;28;20174;-83
2023/02/10 12:50:26;;;;;;;36.47;20.20;;;5.70;99.90;;;;;;5090918;28;20241;-84
2023/02/10 12:52:59;;;;;;;40.30;19.90;;;5.80;99.90;;;;;;5089704;28;20256;-84
2023/02/10 12:55:34;;;;;;;34.13;18.15;;;5.70;99.90;;;;;;5084620;28;20278;-83
2023/02/10 12:58:06;;;;;;;37.00;17.85;;;5.90;99.90;;;;;;5086446;28;20233;-82
2023/02/10 13:00:38;;;;;;;56.03;23.33;;;6.00;99.90;;;;;;5093850;28;20225;-82
2023/02/10 13:03:12;;;;;;;33.72;19.45;;;6.20;1.00;;;;;;5097479;28;20254;-83
2023/02/10 13:05:44;;;;;;;36.65;19.05;;;6.10;1.00;;;;;;5093907;28;20223;-84
2023/02/10 13:08:17;;;;;;;30.10;17.70;;;6.00;99.90;;;;;;5086916;28;20286;-85
2023/02/10 13:10:48;;;;;;;32.03;17.63;;;6.00;99.90;;;;;;5086437;28;20202;-84
2023/02/10 13:13:19;;;;;;;28.27;17.20;;;6.00;99.90;;;;;;5087424;28;20194;-83
2023/02/10 13:15:50;;;;;;;28.38;16.70;;;6.00;99.90;;;;;;5086454;28;20281;-83
2023/02/10 13:18:25;;;;;;;33.13;16.73;;;6.00;99.90;;;;;;5090277;28;20227;-84
2023/02/10 13:21:04;;;;;;;30.48;17.02;;;5.60;1.00;;;;;;5092479;28;20182;-84
2023/02/10 13:23:40;;;;;;;28.25;17.15;;;5.90;99.90;;;;;;5087245;28;20187;-83
2023/02/10 13:26:28;;;;;;;28.08;16.02;;;6.00;99.90;;;;;;5086172;28;20250;-83
2023/02/10 13:29:06;;;;;;;25.20;14.60;;;6.00;99.90;;;;;;5085088;28;20290;-83